Time;durP1;ratioP1;P1;durP2;ratioP2;P2;SDS_P1;SDS_P2;PMS_P1;PMS_P2;Temp;Humidity;BMP_temperature;BMP_pressure;BME280_temperature;BME280_humidity;BME280_pressure;Samples;Min_cycle;Max_cycle;Signal;HPM_P1;HPM_P2
2024/01/09 00:01:58;;;;;;;0.60;0.60;;;;;;;2.95;100.00;99439.72;5094085;28;20195;-66
2024/01/09 00:04:26;;;;;;;0.60;0.60;;;;;;;2.98;100.00;99455.75;5110253;28;20252;-65
2024/01/09 00:06:53;;;;;;;1.17;1.17;;;;;;;2.88;100.00;99453.22;5107049;28;20195;-66
2024/01/09 00:09:20;;;;;;;1.63;1.53;;;;;;;2.94;100.00;99461.66;5106114;28;20187;-65
2024/01/09 00:11:48;;;;;;;2.00;1.33;;;;;;;2.84;100.00;99467.56;5112237;28;20708;-66
2024/01/09 00:14:16;;;;;;;0.70;0.70;;;;;;;2.82;100.00;99469.25;5094179;28;20241;-66
2024/01/09 00:16:43;;;;;;;1.53;1.53;;;;;;;2.89;100.00;99475.16;5103880;28;20201;-65
2024/01/09 00:19:09;;;;;;;0.50;0.50;;;;;;;2.94;100.00;99470.97;5109212;28;20739;-65
2024/01/09 00:21:39;;;;;;;1.63;1.60;;;;;;;2.77;100.00;99478.53;5103406;28;20195;-66
2024/01/09 00:24:06;;;;;;;0.60;0.60;;;;;;;2.60;100.00;99477.63;5101509;28;20731;-66
2024/01/09 00:26:40;;;;;;;0.60;0.60;;;;;;;2.59;100.00;99476.78;5094357;28;20659;-66
2024/01/09 00:29:07;;;;;;;0.80;0.80;;;;;;;2.61;100.00;99489.44;5108190;28;20260;-65
2024/01/09 00:31:34;;;;;;;1.53;1.43;;;;;;;2.59;100.00;99484.38;5114122;28;20199;-66
2024/01/09 00:34:01;;;;;;;0.60;0.60;;;;;;;2.48;100.00;99497.84;5106484;28;20219;-66
2024/01/09 00:36:28;;;;;;;0.67;0.67;;;;;;;2.40;100.00;99491.88;5101881;28;20195;-66
2024/01/09 00:38:56;;;;;;;0.67;0.67;;;;;;;2.36;100.00;99498.63;5097597;28;20296;-65
2024/01/09 00:41:22;;;;;;;0.83;0.83;;;;;;;2.42;100.00;99502.88;5099340;28;20203;-65
2024/01/09 00:43:49;;;;;;;1.13;1.03;;;;;;;2.42;100.00;99503.72;5094596;28;20728;-66
2024/01/09 00:46:16;;;;;;;0.70;0.70;;;;;;;2.33;100.00;99513.78;5097699;28;20202;-66
2024/01/09 00:48:42;;;;;;;0.60;0.60;;;;;;;2.21;100.00;99518.78;5098519;28;20252;-66
2024/01/09 00:51:09;;;;;;;1.37;1.37;;;;;;;2.08;100.00;99497.66;5104886;28;20195;-66
2024/01/09 00:53:36;;;;;;;0.60;0.60;;;;;;;2.18;100.00;99515.41;5100286;28;20199;-65
2024/01/09 00:56:05;;;;;;;2.00;1.90;;;;;;;2.13;100.00;99521.25;5094803;28;20253;-65
2024/01/09 00:58:31;;;;;;;2.00;1.17;;;;;;;2.23;100.00;99521.34;5101851;28;20675;-65
2024/01/09 01:00:58;;;;;;;0.80;0.80;;;;;;;2.17;100.00;99519.59;5108624;28;20218;-65
2024/01/09 01:03:24;;;;;;;1.40;1.40;;;;;;;2.06;100.00;99524.63;5100492;28;20203;-66
2024/01/09 01:05:52;;;;;;;0.73;0.73;;;;;;;2.07;100.00;99526.28;5093034;28;20257;-66
2024/01/09 01:08:18;;;;;;;0.70;0.70;;;;;;;1.98;100.00;99516.13;5092749;28;20235;-65
2024/01/09 01:10:45;;;;;;;1.03;1.03;;;;;;;2.00;100.00;99529.63;5108570;28;20199;-65
2024/01/09 01:13:13;;;;;;;1.00;1.00;;;;;;;2.04;100.00;99531.34;5097038;28;20256;-66
2024/01/09 01:15:40;;;;;;;0.60;0.60;;;;;;;2.10;100.00;99536.44;5092205;28;20208;-66
2024/01/09 01:18:07;;;;;;;0.70;0.70;;;;;;;1.99;100.00;99542.25;5103467;28;20207;-66
2024/01/09 01:20:33;;;;;;;2.67;2.57;;;;;;;1.83;100.00;99535.41;5100337;28;20273;-65
2024/01/09 01:23:00;;;;;;;0.60;0.60;;;;;;;1.84;100.00;99537.94;5092605;28;20199;-66
2024/01/09 01:25:27;;;;;;;1.03;1.03;;;;;;;1.77;100.00;99541.28;5092985;28;20244;-65
2024/01/09 01:27:53;;;;;;;0.90;0.90;;;;;;;1.74;100.00;99540.41;5094426;28;20211;-66
2024/01/09 01:30:21;;;;;;;0.70;0.70;;;;;;;1.74;100.00;99546.31;5098389;28;20730;-65
2024/01/09 01:32:48;;;;;;;0.73;0.73;;;;;;;1.61;100.00;99544.53;5094101;28;20260;-65
2024/01/09 01:35:15;;;;;;;0.97;0.97;;;;;;;1.56;100.00;99547.00;5102180;28;20679;-65
2024/01/09 01:37:41;;;;;;;0.80;0.80;;;;;;;1.54;100.00;99550.34;5092484;28;20263;-65
2024/01/09 01:40:09;;;;;;;0.70;0.70;;;;;;;1.49;100.00;99549.47;5108899;28;20758;-65
2024/01/09 01:42:36;;;;;;;0.70;0.70;;;;;;;1.48;100.00;99563.78;5101485;28;20198;-65
2024/01/09 01:45:03;;;;;;;1.63;1.63;;;;;;;1.47;100.00;99551.13;5101591;28;20195;-66
2024/01/09 01:47:31;;;;;;;1.30;1.20;;;;;;;1.45;100.00;99558.72;5095201;28;20256;-65
2024/01/09 01:49:58;;;;;;;1.37;1.37;;;;;;;1.32;100.00;99540.91;5093884;28;20720;-65
2024/01/09 01:52:24;;;;;;;1.10;1.10;;;;;;;1.41;100.00;99561.19;5102260;28;20198;-65
2024/01/09 01:54:51;;;;;;;0.60;0.60;;;;;;;1.36;100.00;99562.81;5096241;28;20252;-65
2024/01/09 01:57:18;;;;;;;4.40;1.37;;;;;;;1.30;100.00;99557.72;5093502;28;20196;-65
2024/01/09 01:59:47;;;;;;;1.07;1.07;;;;;;;1.23;100.00;99561.84;5096726;28;20219;-65
2024/01/09 02:02:15;;;;;;;1.20;1.20;;;;;;;1.20;100.00;99555.94;5112192;28;20210;-65
2024/01/09 02:04:45;;;;;;;1.10;1.10;;;;;;;1.11;100.00;99539.03;5094114;27;20582;-64
2024/01/09 02:07:12;;;;;;;0.50;0.50;;;;;;;1.31;100.00;99556.88;5105346;28;20198;-65
2024/01/09 02:09:40;;;;;;;0.60;0.60;;;;;;;1.27;100.00;99550.09;5095912;28;20195;-65
2024/01/09 02:12:08;;;;;;;1.07;1.07;;;;;;;1.35;100.00;99553.56;5094452;28;20238;-65
2024/01/09 02:14:35;;;;;;;3.30;0.87;;;;;;;1.29;100.00;99551.00;5102488;28;20585;-64
2024/01/09 02:17:02;;;;;;;0.90;0.90;;;;;;;1.19;100.00;99551.72;5103593;28;20203;-65
2024/01/09 02:19:30;;;;;;;1.43;1.43;;;;;;;1.17;100.00;99550.84;5106181;28;20709;-64
2024/01/09 02:21:58;;;;;;;0.63;0.63;;;;;;;1.21;100.00;99555.09;5094874;28;20199;-65
2024/01/09 02:24:25;;;;;;;0.90;0.90;;;;;;;0.94;100.00;99532.94;5098057;28;20198;-65
2024/01/09 02:27:01;;;;;;;1.50;1.17;;;;;;;1.02;100.00;99570.06;5090103;28;20195;-65
2024/01/09 02:29:30;;;;;;;0.87;0.87;;;;;;;1.09;100.00;99567.63;5091543;28;20195;-65
2024/01/09 02:31:59;;;;;;;0.70;0.70;;;;;;;1.04;100.00;99570.94;5107408;28;20206;-65
2024/01/09 02:34:29;;;;;;;0.70;0.70;;;;;;;1.05;100.00;99582.72;5104116;27;20691;-64
2024/01/09 02:36:55;;;;;;;0.70;0.70;;;;;;;1.09;100.00;99573.50;5107512;28;20587;-65
2024/01/09 02:39:22;;;;;;;0.60;0.60;;;;;;;1.07;100.00;99567.59;5105804;28;20222;-65
2024/01/09 02:41:50;;;;;;;1.43;1.43;;;;;;;1.20;100.00;99571.06;5089988;28;20203;-65
2024/01/09 02:44:18;;;;;;;1.13;1.13;;;;;;;1.09;100.00;99562.56;5097253;28;20200;-65
2024/01/09 02:46:46;;;;;;;1.20;1.20;;;;;;;1.03;100.00;99554.06;5111635;28;20646;-65
2024/01/09 02:49:14;;;;;;;0.60;0.60;;;;;;;1.03;100.00;99554.06;5092807;28;20278;-65
2024/01/09 02:51:42;;;;;;;1.80;1.70;;;;;;;0.98;100.00;99550.69;5095698;28;20191;-65
2024/01/09 02:54:09;;;;;;;0.80;0.80;;;;;;;0.95;100.00;99535.50;5092386;28;20195;-65
2024/01/09 02:56:38;;;;;;;2.63;1.20;;;;;;;0.88;100.00;99533.75;5107451;28;20195;-65
2024/01/09 02:59:05;;;;;;;1.43;1.43;;;;;;;0.89;100.00;99549.72;5098370;28;20667;-65
2024/01/09 03:01:33;;;;;;;1.37;1.37;;;;;;;0.76;100.00;99543.72;5106151;28;20217;-65
2024/01/09 03:04:00;;;;;;;1.33;1.33;;;;;;;0.76;100.00;99573.13;5095970;28;20199;-65
2024/01/09 03:06:28;;;;;;;1.47;1.47;;;;;;;0.72;100.00;99579.81;5096373;28;20268;-65
2024/01/09 03:08:55;;;;;;;0.90;0.90;;;;;;;0.73;100.00;99589.09;5101878;28;20200;-65
2024/01/09 03:11:21;;;;;;;1.33;1.33;;;;;;;0.74;100.00;99589.94;5102961;28;20195;-65
2024/01/09 03:13:48;;;;;;;0.80;0.80;;;;;;;0.70;100.00;99590.72;5107240;28;20255;-65
2024/01/09 03:16:15;;;;;;;5.10;3.97;;;;;;;0.64;100.00;99588.97;5095171;28;20260;-65
2024/01/09 03:18:42;;;;;;;0.60;0.60;;;;;;;0.65;100.00;99592.34;5098371;28;20256;-65
2024/01/09 03:21:11;;;;;;;1.00;1.00;;;;;;;0.60;100.00;99592.28;5101915;28;20207;-65
2024/01/09 03:23:39;;;;;;;1.23;1.23;;;;;;;0.61;100.00;99609.13;5098791;28;20195;-65
2024/01/09 03:26:06;;;;;;;0.70;0.70;;;;;;;0.57;100.00;99607.38;5093109;28;20203;-66
2024/01/09 03:28:32;;;;;;;0.60;0.60;;;;;;;0.60;100.00;99616.66;5104042;28;20563;-65
2024/01/09 03:30:59;;;;;;;1.70;1.47;;;;;;;0.48;100.00;99602.22;5098438;28;20199;-65
2024/01/09 03:33:26;;;;;;;0.70;0.70;;;;;;;0.47;100.00;99608.09;5107252;28;20203;-65
2024/01/09 03:35:52;;;;;;;1.53;1.53;;;;;;;0.40;100.00;99608.81;5098088;28;20207;-65
2024/01/09 03:38:19;;;;;;;1.13;1.13;;;;;;;0.47;100.00;99620.69;5098330;28;20251;-65
2024/01/09 03:40:47;;;;;;;1.00;1.00;;;;;;;0.39;100.00;99607.13;5098803;28;20227;-65
2024/01/09 03:43:14;;;;;;;0.80;0.80;;;;;;;0.23;100.00;99611.09;5093260;28;20199;-65
2024/01/09 03:45:40;;;;;;;0.93;0.93;;;;;;;0.26;100.00;99626.28;5099441;28;20194;-65
2024/01/09 03:48:08;;;;;;;1.30;1.30;;;;;;;0.23;100.00;99635.47;5092758;28;20625;-65
2024/01/09 03:50:34;;;;;;;1.70;1.70;;;;;;;0.34;100.00;99664.22;5099102;28;20190;-65
2024/01/09 03:53:01;;;;;;;0.80;0.80;;;;;;;0.30;100.00;99672.56;5096924;28;20203;-65
2024/01/09 03:55:28;;;;;;;2.47;2.37;;;;;;;0.21;100.00;99664.84;5097893;28;20625;-65
2024/01/09 03:57:56;;;;;;;1.10;1.10;;;;;;;0.18;100.00;99667.31;5090603;28;20256;-65
2024/01/09 04:00:22;;;;;;;1.07;1.00;;;;;;;0.16;100.00;99681.59;5094735;28;20215;-64
2024/01/09 04:02:49;;;;;;;1.27;1.27;;;;;;;0.19;100.00;99674.06;5106670;28;20259;-64
2024/01/09 04:05:16;;;;;;;1.63;1.63;;;;;;;0.21;100.00;99682.50;5092779;28;20196;-64
2024/01/09 04:07:42;;;;;;;0.80;0.80;;;;;;;0.21;100.00;99685.03;5099502;28;20247;-64
2024/01/09 04:10:09;;;;;;;1.00;1.00;;;;;;;0.10;100.00;99679.81;5102237;28;22597;-65
2024/01/09 04:12:36;;;;;;;0.97;0.97;;;;;;;0.10;100.00;99674.75;5092483;28;20195;-65
2024/01/09 04:15:05;;;;;;;2.60;2.60;;;;;;;0.05;100.00;99665.44;5095682;28;20271;-65
2024/01/09 04:17:32;;;;;;;1.67;1.67;;;;;;;0.02;100.00;99665.41;5095450;28;20637;-64
2024/01/09 04:20:01;;;;;;;0.90;0.90;;;;;;;0.00;100.00;99688.88;5099144;28;20248;-65
2024/01/09 04:22:27;;;;;;;0.70;0.70;;;;;;;-0.04;100.00;99692.19;5100594;28;20199;-64
2024/01/09 04:24:54;;;;;;;0.83;0.83;;;;;;;-0.04;100.00;99694.72;5097910;28;20743;-65
2024/01/09 04:27:21;;;;;;;2.13;1.93;;;;;;;-0.09;100.00;99698.81;5092085;28;20740;-65
2024/01/09 04:29:48;;;;;;;0.90;0.90;;;;;;;-0.14;100.00;99705.47;5095954;28;20199;-64
2024/01/09 04:32:16;;;;;;;1.27;1.27;;;;;;;-0.14;100.00;99710.50;5094023;28;20253;-65
2024/01/09 04:34:44;;;;;;;0.70;0.70;;;;;;;-0.19;100.00;99707.03;5093057;28;20678;-65
2024/01/09 04:37:10;;;;;;;1.90;1.90;;;;;;;-0.21;100.00;99710.34;5099243;28;20249;-65
2024/01/09 04:39:37;;;;;;;3.37;3.27;;;;;;;-0.33;100.00;99717.69;5093298;28;20231;-64
2024/01/09 04:42:04;;;;;;;0.60;0.60;;;;;;;-0.33;100.00;99718.56;5095342;28;20679;-64
2024/01/09 04:44:31;;;;;;;1.10;1.10;;;;;;;-0.30;100.00;99737.91;5094028;28;20199;-64
2024/01/09 04:46:58;;;;;;;1.10;1.10;;;;;;;-0.37;100.00;99736.94;5100137;28;20220;-64
2024/01/09 04:49:26;;;;;;;1.20;1.20;;;;;;;-0.37;100.00;99736.09;5097026;28;20257;-64
2024/01/09 04:51:52;;;;;;;1.00;1.00;;;;;;;-0.35;100.00;99755.44;5099672;28;20775;-65
2024/01/09 04:54:19;;;;;;;0.90;0.90;;;;;;;-0.32;100.00;99755.50;5099750;28;20198;-65
2024/01/09 04:56:46;;;;;;;1.07;1.07;;;;;;;-0.42;100.00;99743.53;5104640;28;20199;-64
2024/01/09 04:59:12;;;;;;;1.00;1.00;;;;;;;-0.43;100.00;99741.88;5096182;28;20229;-64
2024/01/09 05:01:39;;;;;;;0.73;0.73;;;;;;;-0.38;100.00;99749.50;5100386;28;20666;-64
2024/01/09 05:04:06;;;;;;;1.33;1.33;;;;;;;-0.46;100.00;99756.91;5097067;28;20219;-64
2024/01/09 05:06:34;;;;;;;1.10;1.10;;;;;;;-0.47;100.00;99770.31;5107996;28;20632;-64
2024/01/09 05:09:00;;;;;;;1.13;1.13;;;;;;;-0.42;100.00;99778.81;5099366;28;20241;-64
2024/01/09 05:11:27;;;;;;;1.20;1.20;;;;;;;-0.38;100.00;99775.53;5100654;28;20211;-65
2024/01/09 05:13:54;;;;;;;0.83;0.83;;;;;;;-0.33;100.00;99776.50;5097174;28;20667;-64
2024/01/09 05:16:20;;;;;;;1.50;1.50;;;;;;;-0.40;100.00;99792.28;5100169;28;20671;-64
2024/01/09 05:18:47;;;;;;;1.00;1.00;;;;;;;-0.43;100.00;99794.75;5100414;28;20194;-64
2024/01/09 05:21:14;;;;;;;1.27;1.27;;;;;;;-0.47;100.00;99808.09;5107367;27;20191;-64
2024/01/09 05:23:42;;;;;;;0.80;0.80;;;;;;;-0.40;100.00;99817.47;5099975;28;20640;-64
2024/01/09 05:26:09;;;;;;;1.70;1.60;;;;;;;-0.38;100.00;99810.78;5108252;28;20607;-64
2024/01/09 05:28:36;;;;;;;1.77;1.77;;;;;;;-0.31;100.00;99806.72;5104998;28;20210;-65
2024/01/09 05:31:03;;;;;;;1.00;1.00;;;;;;;-0.33;100.00;99809.22;5113307;28;20264;-64
2024/01/09 05:33:31;;;;;;;0.80;0.80;;;;;;;-0.37;100.00;99812.50;5098797;28;20257;-64
2024/01/09 05:35:58;;;;;;;1.47;1.47;;;;;;;-0.45;100.00;99823.25;5098234;28;20694;-64
2024/01/09 05:38:25;;;;;;;4.80;1.80;;;;;;;-0.55;100.00;99817.19;5105573;28;20199;-64
2024/01/09 05:40:54;;;;;;;0.93;0.93;;;;;;;-0.55;100.00;99822.22;5095055;28;20229;-64
2024/01/09 05:43:20;;;;;;;0.70;0.70;;;;;;;-0.54;100.00;99827.25;5103740;28;20199;-64
2024/01/09 05:45:47;;;;;;;1.23;1.23;;;;;;;-0.59;100.00;99826.34;5098294;28;20666;-64
2024/01/09 05:48:14;;;;;;;1.40;1.40;;;;;;;-0.58;100.00;99817.94;5102692;27;20255;-64
2024/01/09 05:50:41;;;;;;;4.97;1.40;;;;;;;-0.68;100.00;99813.53;5101371;28;20227;-64
2024/01/09 05:53:09;;;;;;;0.70;0.70;;;;;;;-0.63;100.00;99833.78;5103702;28;20191;-64
2024/01/09 05:55:36;;;;;;;0.60;0.60;;;;;;;-0.59;100.00;99840.59;5100671;28;20663;-64
2024/01/09 05:58:04;;;;;;;0.87;0.87;;;;;;;-0.57;100.00;99838.94;5107415;28;20259;-64
2024/01/09 06:00:33;;;;;;;1.17;1.17;;;;;;;-0.62;100.00;99845.56;5101160;28;20260;-64
2024/01/09 06:02:59;;;;;;;1.53;1.53;;;;;;;-0.66;100.00;99843.78;5100604;28;20231;-64
2024/01/09 06:05:26;;;;;;;3.17;3.00;;;;;;;-0.67;100.00;99857.19;5100569;28;20945;-64
2024/01/09 06:07:53;;;;;;;0.87;0.87;;;;;;;-0.70;100.00;99862.13;5093082;28;20204;-64
2024/01/09 06:10:19;;;;;;;1.27;1.27;;;;;;;-0.73;100.00;99867.13;5090554;28;20229;-64
2024/01/09 06:12:46;;;;;;;1.03;1.03;;;;;;;-0.78;100.00;99866.16;5091072;28;20272;-64
2024/01/09 06:15:14;;;;;;;1.23;1.23;;;;;;;-0.73;100.00;99877.19;5101969;28;20203;-63
2024/01/09 06:17:41;;;;;;;1.17;1.17;;;;;;;-0.67;100.00;99872.28;5098424;28;20260;-64
2024/01/09 06:20:08;;;;;;;0.70;0.70;;;;;;;-0.65;100.00;99880.72;5090656;28;20211;-64
2024/01/09 06:22:35;;;;;;;0.90;0.90;;;;;;;-0.73;100.00;99888.09;5100043;28;20244;-65
2024/01/09 06:25:02;;;;;;;1.00;1.00;;;;;;;-0.67;100.00;99908.38;5100375;28;20210;-64
2024/01/09 06:27:28;;;;;;;1.60;1.60;;;;;;;-0.69;100.00;99911.69;5102821;28;20340;-64
2024/01/09 06:29:55;;;;;;;4.53;1.67;;;;;;;-0.77;100.00;99895.53;5100956;28;20200;-64
2024/01/09 06:32:23;;;;;;;0.80;0.80;;;;;;;-0.66;100.00;99916.78;5087860;28;20707;-65
2024/01/09 06:34:50;;;;;;;1.60;1.60;;;;;;;-0.62;100.00;99911.88;5107114;28;20255;-64
2024/01/09 06:37:16;;;;;;;2.00;1.83;;;;;;;-0.64;100.00;99902.56;5101135;28;20211;-66
2024/01/09 06:39:43;;;;;;;0.73;0.73;;;;;;;-0.50;100.00;99906.25;5100286;28;20276;-65
2024/01/09 06:42:10;;;;;;;1.00;1.00;;;;;;;-0.54;100.00;99904.47;5090190;28;20625;-66
2024/01/09 06:44:37;;;;;;;1.03;1.03;;;;;;;-0.57;100.00;99914.47;5103937;28;20206;-65
2024/01/09 06:47:03;;;;;;;1.27;1.27;;;;;;;-0.64;100.00;99905.06;5103360;28;20195;-65
2024/01/09 06:49:32;;;;;;;2.40;2.30;;;;;;;-0.56;100.00;99917.03;5088712;28;20199;-65
2024/01/09 06:51:58;;;;;;;0.93;0.93;;;;;;;-0.53;100.00;99931.34;5094841;28;20211;-65
2024/01/09 06:54:25;;;;;;;0.80;0.80;;;;;;;-0.73;100.00;99900.69;5102159;28;20210;-66
2024/01/09 06:56:52;;;;;;;2.80;1.53;;;;;;;-0.41;100.00;99950.91;5105996;28;20199;-66
2024/01/09 06:59:18;;;;;;;1.80;1.80;;;;;;;-0.33;100.00;99950.28;5094864;28;20207;-65
2024/01/09 07:01:46;;;;;;;1.50;1.50;;;;;;;-0.31;100.00;99948.63;5103185;28;20637;-65
2024/01/09 07:04:12;;;;;;;0.80;0.80;;;;;;;-0.26;100.00;99956.31;5102469;28;20202;-65
2024/01/09 07:06:40;;;;;;;0.80;0.80;;;;;;;-0.26;100.00;99967.22;5099770;28;20201;-64
2024/01/09 07:09:08;;;;;;;0.90;0.90;;;;;;;-0.27;100.00;99980.66;5095159;28;20536;-65
2024/01/09 07:11:34;;;;;;;0.80;0.80;;;;;;;-0.21;100.00;99978.25;5101093;28;20267;-65
2024/01/09 07:14:01;;;;;;;5.37;1.63;;;;;;;-0.18;100.00;99980.84;5092893;28;20264;-65
2024/01/09 07:16:29;;;;;;;1.00;1.00;;;;;;;-0.21;100.00;99978.25;5097187;28;20253;-65
2024/01/09 07:18:56;;;;;;;0.80;0.80;;;;;;;-0.24;100.00;99984.88;5096651;28;20210;-65
2024/01/09 07:21:22;;;;;;;0.77;0.77;;;;;;;-0.23;100.00;99982.41;5094603;28;20629;-65
2024/01/09 07:23:50;;;;;;;0.80;0.80;;;;;;;-0.24;100.00;99990.78;5090329;28;20202;-65
2024/01/09 07:26:17;;;;;;;0.70;0.70;;;;;;;-0.25;100.00;99994.13;5098519;28;20629;-66
2024/01/09 07:28:44;;;;;;;1.60;1.53;;;;;;;-0.26;100.00;99996.63;5094122;28;20268;-65
2024/01/09 07:31:10;;;;;;;1.63;1.63;;;;;;;-0.29;100.00;100004.09;5096115;28;20231;-65
2024/01/09 07:33:37;;;;;;;0.80;0.80;;;;;;;-0.22;100.00;100008.44;5100641;28;21251;-65
2024/01/09 07:36:06;;;;;;;1.33;1.33;;;;;;;-0.18;100.00;100008.56;5094405;28;20207;-65
2024/01/09 07:38:32;;;;;;;0.70;0.70;;;;;;;-0.16;100.00;100022.03;5098381;28;20739;-65
2024/01/09 07:41:00;;;;;;;1.23;1.23;;;;;;;-0.28;100.00;100034.34;5099087;28;20202;-65
2024/01/09 07:43:27;;;;;;;1.10;1.10;;;;;;;-0.32;100.00;100030.06;5098244;28;20210;-66
2024/01/09 07:45:54;;;;;;;1.20;1.20;;;;;;;-0.40;100.00;100036.59;5096303;28;20194;-65
2024/01/09 07:48:21;;;;;;;2.40;2.40;;;;;;;-0.40;100.00;100048.34;5101529;28;20203;-66
2024/01/09 07:50:47;;;;;;;0.60;0.60;;;;;;;-0.38;100.00;100041.66;5096658;28;20215;-65
2024/01/09 07:53:14;;;;;;;1.03;1.03;;;;;;;-0.39;100.00;100045.00;5097050;28;20223;-67
2024/01/09 07:55:41;;;;;;;1.10;1.10;;;;;;;-0.44;100.00;100039.84;5092004;28;20203;-66
2024/01/09 07:58:09;;;;;;;2.33;2.30;;;;;;;-0.51;100.00;100045.53;5088776;28;20203;-66
2024/01/09 08:00:36;;;;;;;0.63;0.63;;;;;;;-0.55;100.00;100049.66;5093625;28;20198;-65
2024/01/09 08:03:05;;;;;;;0.80;0.80;;;;;;;-0.48;100.00;100048.13;5097121;28;20209;-65
2024/01/09 08:05:32;;;;;;;0.83;0.83;;;;;;;-0.40;100.00;100051.69;5090077;28;20286;-65
2024/01/09 08:07:58;;;;;;;1.10;1.10;;;;;;;-0.35;100.00;100060.22;5093493;28;20200;-66
2024/01/09 08:10:26;;;;;;;0.73;0.73;;;;;;;-0.47;100.00;100052.38;5102840;28;20727;-66
2024/01/09 08:12:53;;;;;;;0.93;0.93;;;;;;;-0.66;100.00;100014.97;5098125;28;20267;-65
2024/01/09 08:15:22;;;;;;;1.67;1.57;;;;;;;-0.59;100.00;100047.03;5090962;28;20199;-65
2024/01/09 08:17:48;;;;;;;1.37;1.37;;;;;;;-0.60;100.00;100050.38;5093006;28;20587;-66
2024/01/09 08:20:15;;;;;;;1.10;1.10;;;;;;;-0.62;100.00;100044.44;5094059;28;20633;-65
2024/01/09 08:22:42;;;;;;;0.87;0.87;;;;;;;-0.58;100.00;100042.03;5096778;28;20256;-66
2024/01/09 08:25:10;;;;;;;1.47;1.47;;;;;;;-0.66;100.00;100050.22;5102586;28;20199;-66
2024/01/09 08:27:36;;;;;;;1.60;1.60;;;;;;;-0.67;100.00;100058.56;5093095;28;20214;-65
2024/01/09 08:30:03;;;;;;;1.00;1.00;;;;;;;-0.69;100.00;100065.25;5092447;28;20200;-67
2024/01/09 08:32:32;;;;;;;0.80;0.80;;;;;;;-0.68;100.00;100066.97;5098975;28;20658;-66
2024/01/09 08:34:58;;;;;;;1.33;1.33;;;;;;;-0.75;100.00;100072.66;5092443;28;20525;-66
2024/01/09 08:37:25;;;;;;;1.97;1.83;;;;;;;-0.69;100.00;100075.31;5092332;28;20202;-67
2024/01/09 08:39:52;;;;;;;1.00;1.00;;;;;;;-0.68;100.00;100075.34;5091924;28;20292;-66
2024/01/09 08:42:18;;;;;;;1.60;1.60;;;;;;;-0.63;100.00;100076.31;5096296;28;20731;-66
2024/01/09 08:44:45;;;;;;;3.40;2.00;;;;;;;-0.71;100.00;100087.03;5092353;28;20195;-66
2024/01/09 08:47:12;;;;;;;1.87;1.87;;;;;;;-0.67;100.00;100088.78;5092799;28;20204;-67
2024/01/09 08:49:40;;;;;;;1.20;1.20;;;;;;;-0.60;100.00;100101.56;5091856;28;20229;-67
2024/01/09 08:52:07;;;;;;;2.63;2.10;;;;;;;-0.76;100.00;100116.25;5090327;28;20828;-66
2024/01/09 08:54:33;;;;;;;1.43;1.43;;;;;;;-0.73;100.00;100116.31;5094309;28;20198;-66
2024/01/09 08:57:00;;;;;;;1.23;1.23;;;;;;;-0.76;100.00;100103.66;5096454;28;20256;-65
2024/01/09 08:59:27;;;;;;;0.70;0.70;;;;;;;-0.84;100.00;100108.47;5096220;28;20695;-66
2024/01/09 09:01:53;;;;;;;1.17;1.17;;;;;;;-0.91;100.00;100094.06;5096092;28;20260;-65
2024/01/09 09:04:20;;;;;;;0.97;0.97;;;;;;;-0.98;100.00;100066.16;5094777;28;20195;-66
2024/01/09 09:06:48;;;;;;;0.80;0.80;;;;;;;-0.85;100.00;100083.28;5100565;28;20205;-65
2024/01/09 09:09:15;;;;;;;1.37;1.37;;;;;;;-0.73;100.00;100084.44;5105563;28;20256;-66
2024/01/09 09:11:42;;;;;;;1.93;1.83;;;;;;;-0.76;100.00;100094.44;5093926;28;20223;-68
2024/01/09 09:14:08;;;;;;;0.97;0.83;;;;;;;-0.74;100.00;100102.00;5091519;28;20207;-66
2024/01/09 09:16:36;;;;;;;0.77;0.77;;;;;;;-0.80;100.00;100092.66;5090241;28;20631;-66
2024/01/09 09:19:02;;;;;;;0.90;0.90;;;;;;;-0.76;100.00;100084.38;5098260;28;20203;-65
2024/01/09 09:21:29;;;;;;;1.53;1.53;;;;;;;-0.82;100.00;100071.63;5092792;28;20199;-66
2024/01/09 09:23:57;;;;;;;2.40;1.00;;;;;;;-0.83;100.00;100081.66;5103033;28;20195;-66
2024/01/09 09:26:24;;;;;;;1.00;1.00;;;;;;;-0.92;100.00;100068.84;5109786;28;20199;-65
2024/01/09 09:28:51;;;;;;;1.73;1.73;;;;;;;-0.86;100.00;100074.88;5106084;28;20195;-65
2024/01/09 09:31:17;;;;;;;1.63;1.63;;;;;;;-0.70;100.00;100086.19;5096527;28;20674;-65
2024/01/09 09:33:45;;;;;;;2.00;1.00;;;;;;;-0.78;100.00;100080.97;5083362;28;20224;-65
2024/01/09 09:36:13;;;;;;;0.80;0.80;;;;;;;-0.71;100.00;100087.03;5095958;28;20658;-65
2024/01/09 09:38:40;;;;;;;0.80;0.80;;;;;;;-0.73;100.00;100083.59;5095945;28;20275;-65
2024/01/09 09:41:09;;;;;;;0.70;0.70;;;;;;;-0.65;100.00;100097.25;5097476;28;20190;-65
2024/01/09 09:43:36;;;;;;;0.80;0.80;;;;;;;-0.76;100.00;100091.06;5107372;28;20635;-65
2024/01/09 09:46:04;;;;;;;2.97;2.70;;;;;;;-0.82;100.00;100099.31;5102187;28;20576;-65
2024/01/09 09:48:32;;;;;;;1.03;1.03;;;;;;;-0.72;100.00;100092.84;5102283;28;20226;-65
2024/01/09 09:51:01;;;;;;;1.53;1.43;;;;;;;-0.62;100.00;100094.81;5093001;28;20619;-67
2024/01/09 09:53:30;;;;;;;1.10;1.10;;;;;;;-0.55;100.00;100089.13;5102902;28;20256;-65
2024/01/09 09:55:58;;;;;;;1.23;1.23;;;;;;;-0.50;100.00;100097.63;5102332;28;20546;-66
2024/01/09 09:58:27;;;;;;;1.33;1.20;;;;;;;-0.57;100.00;100106.69;5109544;28;20202;-65
2024/01/09 10:00:58;;;;;;;1.03;1.03;;;;;;;-0.57;100.00;100106.69;5099728;28;20215;-66
2024/01/09 10:03:32;;;;;;;0.80;0.80;;;;;;;-0.56;100.00;100103.38;5102915;28;23026;-66
2024/01/09 10:06:04;;;;;;;0.90;0.90;;;;;;;-0.61;100.00;100104.03;5102626;28;20200;-65
2024/01/09 10:08:33;;;;;;;0.90;0.90;;;;;;;-0.60;100.00;100095.69;5100741;28;20212;-65
2024/01/09 10:11:00;;;;;;;1.20;1.20;;;;;;;-0.66;100.00;100095.53;5097366;28;20251;-66
2024/01/09 10:13:28;;;;;;;1.87;1.77;;;;;;;-0.56;100.00;100092.44;5091578;28;20284;-67
2024/01/09 10:15:58;;;;;;;0.70;0.70;;;;;;;-0.63;100.00;100080.50;5099746;28;20230;-67
2024/01/09 10:18:29;;;;;;;1.90;1.90;;;;;;;-0.68;100.00;100087.91;5095509;28;20204;-65
2024/01/09 10:20:57;;;;;;;0.83;0.83;;;;;;;-0.65;100.00;100097.25;5092599;28;20199;-65
2024/01/09 10:23:24;;;;;;;1.10;1.10;;;;;;;-0.75;100.00;100100.34;5095930;28;20268;-65
2024/01/09 10:25:51;;;;;;;0.70;0.70;;;;;;;-0.72;100.00;100105.44;5096603;28;20740;-69
2024/01/09 10:28:18;;;;;;;1.43;1.43;;;;;;;-0.79;100.00;100106.94;5104392;28;20205;-65
2024/01/09 10:30:46;;;;;;;0.80;0.80;;;;;;;-0.92;100.00;100116.66;5102353;28;20214;-65
2024/01/09 10:33:13;;;;;;;1.47;1.47;;;;;;;-0.86;100.00;100116.81;5100476;28;20212;-65
2024/01/09 10:35:41;;;;;;;0.83;0.83;;;;;;;-0.95;100.00;100107.34;5099408;28;20268;-65
2024/01/09 10:38:09;;;;;;;0.80;0.80;;;;;;;-0.90;100.00;100120.03;5095666;28;20281;-64
2024/01/09 10:40:36;;;;;;;1.63;1.63;;;;;;;-0.89;100.00;100112.53;5102203;28;20222;-65
2024/01/09 10:43:03;;;;;;;7.40;1.30;;;;;;;-0.95;100.00;100116.56;5099218;28;20188;-65
2024/01/09 10:45:31;;;;;;;1.07;1.07;;;;;;;-0.90;100.00;100115.88;5098041;28;20252;-66
2024/01/09 10:47:59;;;;;;;0.90;0.90;;;;;;;-0.92;100.00;100120.03;5096389;28;20200;-65
2024/01/09 10:50:26;;;;;;;0.80;0.80;;;;;;;-0.97;100.00;100124.09;5100020;28;20251;-65
2024/01/09 10:52:53;;;;;;;1.00;1.00;;;;;;;-0.98;100.00;100126.56;5098477;28;20211;-65
2024/01/09 10:55:24;;;;;;;0.60;0.60;;;;;;;-0.92;100.00;100126.72;5097923;28;20207;-65
2024/01/09 10:57:51;;;;;;;1.00;1.00;;;;;;;-0.98;100.00;100131.59;5095149;28;20264;-65
2024/01/09 11:00:20;;;;;;;1.57;1.57;;;;;;;-0.95;100.00;100142.59;5099226;28;20744;-65
2024/01/09 11:02:47;;;;;;;1.37;1.37;;;;;;;-0.95;100.00;100152.66;5099657;28;20758;-64
2024/01/09 11:05:15;;;;;;;1.00;1.00;;;;;;;-0.90;100.00;100150.25;5100764;28;20190;-64
2024/01/09 11:07:44;;;;;;;0.90;0.90;;;;;;;-0.95;100.00;100147.63;5101693;28;20207;-65
2024/01/09 11:10:16;;;;;;;1.50;1.47;;;;;;;-1.03;100.00;100150.75;5094094;28;20199;-66
2024/01/09 11:12:46;;;;;;;1.53;1.53;;;;;;;-1.01;100.00;100157.53;5099942;28;20211;-65
2024/01/09 11:15:17;;;;;;;1.03;1.03;;;;;;;-1.05;100.00;100160.75;5097460;28;20703;-66
2024/01/09 11:17:47;;;;;;;1.20;1.20;;;;;;;-1.16;100.00;100145.34;5097641;28;20214;-64
2024/01/09 11:20:17;;;;;;;0.90;0.90;;;;;;;-1.09;100.00;100149.75;5093141;28;20203;-66
2024/01/09 11:22:44;;;;;;;1.27;1.27;;;;;;;-1.13;100.00;100152.97;5097087;28;20252;-65
2024/01/09 11:25:16;;;;;;;0.97;0.97;;;;;;;-1.07;100.00;100153.16;5105698;28;20198;-64